Time;durP1;ratioP1;P1;durP2;ratioP2;P2;SDS_P1;SDS_P2;PMS_P1;PMS_P2;Temp;Humidity;BMP_temperature;BMP_pressure;BME280_temperature;BME280_humidity;BME280_pressure;Samples;Min_cycle;Max_cycle;Signal;HPM_P1;HPM_P2
2022/05/22 08:24:12;;;;;;;8.23;2.55;;;20.20;73.10;;;;;;5052959;28;20503;-66
2022/05/22 08:26:38;;;;;;;6.90;2.28;;;19.60;73.80;;;;;;5055314;28;20025;-65
2022/05/22 08:29:04;;;;;;;6.90;2.58;;;19.70;73.40;;;;;;5044642;28;20041;-65
2022/05/22 08:31:30;;;;;;;8.40;2.17;;;19.90;72.90;;;;;;5044804;28;20021;-65
2022/05/22 08:33:55;;;;;;;10.07;2.60;;;20.00;72.10;;;;;;5052143;28;20031;-65
2022/05/22 08:36:21;;;;;;;7.05;2.20;;;20.10;71.40;;;;;;5045682;28;20117;-66
2022/05/22 08:38:47;;;;;;;6.63;2.22;;;20.20;70.70;;;;;;5046169;28;20135;-65
2022/05/22 08:41:33;;;;;;;7.63;2.22;;;20.30;70.10;;;;;;5045100;28;20036;-65
2022/05/22 08:44:13;;;;;;;7.05;2.33;;;20.40;69.20;;;;;;5052551;28;20057;-68
2022/05/22 08:46:51;;;;;;;7.30;2.45;;;20.40;68.80;;;;;;5048570;28;20614;-66
2022/05/22 08:49:26;;;;;;;7.88;2.20;;;20.50;68.10;;;;;;5050640;28;20028;-65
2022/05/22 08:52:00;;;;;;;7.53;2.10;;;20.60;68.10;;;;;;5048833;28;20467;-65
2022/05/22 08:54:36;;;;;;;8.10;2.25;;;20.60;67.70;;;;;;5045979;28;20025;-65
2022/05/22 08:59:58;;;;;;;9.10;2.40;;;20.70;66.90;;;;;;5042717;28;20071;-65
2022/05/22 09:02:28;;;;;;;7.65;2.40;;;20.70;66.20;;;;;;5041305;28;20065;-65
2022/05/22 09:05:08;;;;;;;8.77;2.65;;;20.70;65.70;;;;;;5038749;28;20029;-65
2022/05/22 09:07:40;;;;;;;9.63;2.78;;;20.80;65.80;;;;;;5048092;28;20124;-65
2022/05/22 09:10:09;;;;;;;8.20;2.22;;;20.80;65.80;;;;;;5055356;28;20055;-65
2022/05/22 09:12:51;;;;;;;8.50;2.45;;;20.90;66.80;;;;;;5046580;28;20896;-65
2022/05/22 09:15:35;;;;;;;7.28;2.80;;;20.90;66.90;;;;;;5050224;28;20037;-65
2022/05/22 09:18:09;;;;;;;9.50;3.30;;;21.00;66.80;;;;;;5051992;28;20041;-65
2022/05/22 09:20:57;;;;;;;7.00;2.63;;;21.10;66.10;;;;;;5058539;28;20052;-65
2022/05/22 09:24:20;;;;;;;10.00;2.53;;;21.10;66.20;;;;;;5049412;28;20081;-65
2022/05/22 09:26:57;;;;;;;8.35;2.40;;;21.10;66.10;;;;;;5018647;28;20068;-65
2022/05/22 09:29:38;;;;;;;6.78;2.15;;;21.10;64.80;;;;;;5006616;28;20413;-65
2022/05/22 09:32:25;;;;;;;6.25;2.20;;;21.00;65.10;;;;;;5005215;28;20161;-65
2022/05/22 09:35:12;;;;;;;9.32;2.50;;;21.00;65.20;;;;;;4997081;28;20110;-65
2022/05/22 09:37:52;;;;;;;8.15;2.08;;;21.10;65.40;;;;;;4992218;28;20042;-65
2022/05/22 09:40:42;;;;;;;10.48;2.30;;;21.10;65.40;;;;;;4998955;28;20156;-65
2022/05/22 09:43:38;;;;;;;7.10;2.20;;;21.10;65.20;;;;;;4990194;28;20069;-65
2022/05/22 09:46:13;;;;;;;7.55;2.25;;;21.20;65.00;;;;;;4993090;28;20042;-65
2022/05/22 09:49:01;;;;;;;9.90;2.45;;;21.20;65.30;;;;;;4987831;28;20026;-65
2022/05/22 09:51:48;;;;;;;8.48;2.65;;;21.40;64.40;;;;;;4989112;28;21091;-65
2022/05/22 09:54:48;;;;;;;7.93;2.67;;;21.50;63.70;;;;;;4988605;28;20022;-65
2022/05/22 09:57:43;;;;;;;8.80;2.53;;;21.70;63.50;;;;;;4951521;28;20513;-65
2022/05/22 10:00:34;;;;;;;6.38;2.17;;;21.80;62.50;;;;;;4987752;28;20043;-65
2022/05/22 10:03:18;;;;;;;6.25;2.38;;;21.90;61.40;;;;;;4986993;28;20105;-65
2022/05/22 10:05:55;;;;;;;8.45;2.85;;;22.00;60.70;;;;;;5002202;28;20030;-65
2022/05/22 10:08:44;;;;;;;8.15;2.70;;;22.20;60.40;;;;;;4985591;28;20137;-66
2022/05/22 10:11:32;;;;;;;8.68;2.40;;;22.30;59.70;;;;;;4977498;28;20029;-65
2022/05/22 10:14:21;;;;;;;6.13;2.10;;;22.60;58.90;;;;;;4977479;28;20030;-66
2022/05/22 10:17:10;;;;;;;6.22;2.30;;;23.40;56.60;;;;;;4981064;28;20034;-67
2022/05/22 10:20:02;;;;;;;7.93;2.80;;;24.50;52.80;;;;;;4985068;28;20045;-67
2022/05/22 10:22:33;;;;;;;9.18;2.60;;;25.60;49.50;;;;;;4976436;28;20047;-66
2022/05/22 10:25:32;;;;;;;8.20;2.20;;;26.80;47.30;;;;;;4978173;28;20027;-67
2022/05/22 10:28:16;;;;;;;4.78;1.90;;;28.00;43.10;;;;;;4985622;28;20460;-67
2022/05/22 10:30:54;;;;;;;6.90;2.33;;;28.80;40.20;;;;;;4985401;28;20042;-67
2022/05/22 10:33:32;;;;;;;7.68;2.10;;;29.60;37.40;;;;;;4979767;28;20037;-68
2022/05/22 10:36:04;;;;;;;6.82;3.60;;;30.30;36.00;;;;;;5025848;28;20132;-67
2022/05/22 10:38:44;;;;;;;7.82;2.13;;;30.90;33.50;;;;;;5044143;28;20025;-67
2022/05/22 10:44:16;;;;;;;6.40;1.90;;;31.50;32.10;;;;;;5033513;28;19931;-67
2022/05/22 10:46:50;;;;;;;7.78;2.00;;;32.30;30.90;;;;;;5030675;28;20029;-66
2022/05/22 10:49:18;;;;;;;9.15;4.40;;;32.50;30.40;;;;;;5030971;28;20033;-65
2022/05/22 10:51:58;;;;;;;8.65;2.40;;;32.70;30.00;;;;;;5032523;28;20507;-66
2022/05/22 10:54:27;;;;;;;;;;;33.10;29.30;;;;;;5024601;28;20112;-67
2022/05/22 10:56:53;;;;;;;3.85;1.58;;;33.00;29.10;;;;;;5028705;28;20003;-66
2022/05/22 10:59:22;;;;;;;6.07;1.70;;;32.30;30.00;;;;;;5028686;28;20497;-66
2022/05/22 11:01:58;;;;;;;5.30;1.60;;;32.20;30.20;;;;;;5031226;28;20738;-65
2022/05/22 11:04:37;;;;;;;8.95;1.90;;;32.30;30.20;;;;;;5033429;28;20140;-65
2022/05/22 11:07:04;;;;;;;4.88;2.00;;;31.90;30.90;;;;;;5029998;28;20025;-66
2022/05/22 11:09:46;;;;;;;6.80;2.10;;;31.30;32.30;;;;;;5029194;28;20029;-67
2022/05/22 11:12:21;;;;;;;6.00;2.03;;;31.50;31.80;;;;;;5031145;28;20452;-66
2022/05/22 11:14:47;;;;;;;6.90;1.90;;;31.50;31.30;;;;;;5031397;28;20336;-67
2022/05/22 11:17:16;;;;;;;6.38;1.90;;;31.00;31.70;;;;;;5031807;28;20540;-65
2022/05/22 11:19:46;;;;;;;5.15;1.80;;;30.30;33.30;;;;;;5028396;28;20493;-65
2022/05/22 11:22:31;;;;;;;4.72;1.80;;;29.70;34.80;;;;;;5025399;28;20050;-64
2022/05/22 11:25:18;;;;;;;6.40;1.95;;;29.30;36.30;;;;;;5028748;28;20386;-65
2022/05/22 11:27:53;;;;;;;5.80;1.95;;;29.30;35.50;;;;;;5021268;28;20096;-65
2022/05/22 11:31:08;;;;;;;7.40;1.70;;;29.20;36.10;;;;;;5026793;28;20025;-65
2022/05/22 11:34:07;;;;;;;6.55;1.90;;;28.70;37.70;;;;;;5028783;28;20137;-65
2022/05/22 11:36:33;;;;;;;6.18;1.83;;;27.90;39.30;;;;;;5016293;28;20032;-65
2022/05/22 11:39:12;;;;;;;5.50;1.80;;;27.40;40.40;;;;;;5029727;28;20021;-65
2022/05/22 11:41:46;;;;;;;4.63;1.70;;;26.90;41.50;;;;;;5044298;28;20031;-65
2022/05/22 11:44:41;;;;;;;5.50;1.85;;;26.60;42.20;;;;;;5027219;28;20085;-64
2022/05/22 11:47:26;;;;;;;5.10;1.80;;;26.20;42.80;;;;;;5026222;28;20117;-65
2022/05/22 11:50:13;;;;;;;5.53;1.77;;;25.90;44.10;;;;;;5033700;28;20062;-66
2022/05/22 11:53:33;;;;;;;7.53;1.90;;;25.70;45.10;;;;;;5033262;28;20025;-64
2022/05/22 11:56:18;;;;;;;6.35;2.10;;;25.70;44.50;;;;;;5026814;28;20053;-65
2022/05/22 11:59:08;;;;;;;6.40;1.90;;;28.10;39.80;;;;;;5020893;28;20061;-65
2022/05/22 12:01:54;;;;;;;5.03;1.70;;;29.90;37.50;;;;;;5020339;28;20037;-65
2022/05/22 12:04:41;;;;;;;5.78;1.80;;;32.20;33.90;;;;;;5020218;28;20042;-65
2022/05/22 12:07:40;;;;;;;9.75;1.92;;;34.00;29.60;;;;;;5027065;28;20033;-66
2022/05/22 12:10:25;;;;;;;5.95;1.70;;;35.00;28.00;;;;;;5026812;28;20115;-66
2022/05/22 12:13:01;;;;;;;5.93;1.67;;;34.90;27.50;;;;;;5020794;28;20107;-66
2022/05/22 12:15:48;;;;;;;4.75;1.50;;;34.60;28.60;;;;;;5022566;28;20112;-65
2022/05/22 12:18:29;;;;;;;6.15;1.40;;;34.80;27.70;;;;;;5015117;28;20088;-65
2022/05/22 12:21:30;;;;;;;8.02;1.80;;;35.20;26.70;;;;;;5010707;28;20064;-65
2022/05/22 12:24:10;;;;;;;5.28;1.35;;;35.20;26.50;;;;;;4950750;28;20067;-66
2022/05/22 12:26:37;;;;;;;5.40;1.60;;;35.50;26.40;;;;;;4964255;28;20031;-65
2022/05/22 12:29:31;;;;;;;5.78;1.50;;;35.50;26.50;;;;;;4964030;28;20624;-65
2022/05/22 12:31:59;;;;;;;5.28;1.60;;;35.40;26.40;;;;;;4976983;28;20078;-65
2022/05/22 12:34:50;;;;;;;5.57;1.55;;;35.10;27.70;;;;;;4985259;28;20042;-64
2022/05/22 12:37:37;;;;;;;5.03;1.50;;;34.30;28.20;;;;;;4983719;28;20118;-65
2022/05/22 12:40:25;;;;;;;7.07;1.45;;;34.50;27.80;;;;;;4983326;28;20066;-65
2022/05/22 12:42:59;;;;;;;5.70;1.55;;;35.60;26.40;;;;;;4980677;28;20049;-65
2022/05/22 12:45:27;;;;;;;8.20;1.67;;;36.50;25.80;;;;;;4967763;28;20513;-65
2022/05/22 12:47:54;;;;;;;6.45;1.52;;;37.10;25.60;;;;;;4983547;28;20046;-64
2022/05/22 12:50:35;;;;;;;5.90;1.50;;;36.60;25.90;;;;;;4986312;28;20038;-64
2022/05/22 12:53:02;;;;;;;10.80;1.83;;;36.10;26.30;;;;;;4964534;28;20046;-66
2022/05/22 12:55:34;;;;;;;4.95;1.70;;;35.20;27.20;;;;;;4979717;28;20629;-65
2022/05/22 12:58:05;;;;;;;5.70;1.58;;;34.70;27.50;;;;;;4967249;28;20104;-65
2022/05/22 13:00:47;;;;;;;5.97;1.42;;;34.30;28.10;;;;;;4988217;28;20048;-65
2022/05/22 13:03:18;;;;;;;4.68;1.40;;;33.70;28.50;;;;;;5026552;28;20057;-64
2022/05/22 13:05:54;;;;;;;7.68;1.50;;;33.30;29.30;;;;;;5031547;28;20029;-66
2022/05/22 13:08:27;;;;;;;3.33;1.20;;;33.10;29.30;;;;;;5049320;28;20033;-65
2022/05/22 13:10:56;;;;;;;4.82;1.30;;;33.00;28.20;;;;;;5028763;28;20044;-65
2022/05/22 13:13:30;;;;;;;6.35;1.35;;;32.90;28.40;;;;;;5030205;28;20107;-66
2022/05/22 13:16:07;;;;;;;4.78;1.45;;;33.20;28.30;;;;;;5024946;28;20021;-66
2022/05/22 13:18:49;;;;;;;4.53;1.60;;;33.00;29.10;;;;;;5027182;28;20484;-67
2022/05/22 13:21:39;;;;;;;5.13;1.50;;;33.30;28.60;;;;;;5030573;28;20041;-66
2022/05/22 13:24:17;;;;;;;4.57;1.50;;;32.90;29.20;;;;;;5045473;28;20065;-66
2022/05/22 13:27:01;;;;;;;4.22;1.33;;;32.70;29.40;;;;;;5047917;28;20496;-66
2022/05/22 13:29:45;;;;;;;4.75;1.40;;;32.30;29.70;;;;;;5045456;28;20029;-67
2022/05/22 13:32:19;;;;;;;5.78;1.42;;;32.00;29.90;;;;;;5036941;28;20057;-67
2022/05/22 13:34:51;;;;;;;4.45;1.20;;;31.90;29.40;;;;;;5035511;28;20057;-66
2022/05/22 13:37:26;;;;;;;3.25;1.20;;;31.80;29.50;;;;;;5029583;28;20033;-66
2022/05/22 13:40:12;;;;;;;4.97;1.30;;;31.40;29.80;;;;;;5028413;28;20037;-66
2022/05/22 13:43:14;;;;;;;4.47;1.33;;;31.30;31.20;;;;;;5030166;28;20017;-66
2022/05/22 13:46:18;;;;;;;3.53;1.30;;;31.10;30.40;;;;;;5017715;28;20030;-66
2022/05/22 13:48:56;;;;;;;4.38;1.30;;;31.10;30.00;;;;;;5018050;28;20021;-66
2022/05/22 13:55:19;;;;;;;4.55;1.30;;;31.30;30.90;;;;;;5018678;28;20048;-66
2022/05/22 13:57:54;;;;;;;5.40;1.40;;;31.30;31.40;;;;;;5018013;28;20030;-67
2022/05/22 14:00:23;;;;;;;5.05;1.27;;;31.20;30.30;;;;;;5020944;28;20033;-65
2022/05/22 14:02:59;;;;;;;3.53;1.15;;;31.20;30.90;;;;;;5046655;28;20542;-67
2022/05/22 14:05:42;;;;;;;5.78;1.25;;;31.10;31.00;;;;;;5035919;28;20025;-66
2022/05/22 14:08:26;;;;;;;4.75;1.58;;;31.10;31.50;;;;;;5035944;28;20025;-66
2022/05/22 14:10:58;;;;;;;4.80;1.50;;;31.10;31.70;;;;;;5036730;28;20024;-66
2022/05/22 14:13:25;;;;;;;9.27;1.60;;;31.10;31.50;;;;;;5032069;28;20032;-66
2022/05/22 14:15:54;;;;;;;5.25;1.20;;;31.10;31.00;;;;;;5040686;28;20072;-67
2022/05/22 14:18:23;;;;;;;4.65;1.30;;;31.10;31.20;;;;;;5028002;28;20090;-67
2022/05/22 14:20:51;;;;;;;4.00;1.17;;;31.00;31.60;;;;;;5043461;28;20025;-67
2022/05/22 14:23:25;;;;;;;3.13;1.30;;;30.90;32.10;;;;;;5041010;28;20078;-66
2022/05/22 14:25:57;;;;;;;4.15;1.45;;;30.90;31.60;;;;;;5034573;28;20036;-66
2022/05/22 14:28:37;;;;;;;6.00;1.33;;;30.80;32.10;;;;;;5021992;28;20029;-66
2022/05/22 14:31:03;;;;;;;6.28;1.30;;;30.70;32.10;;;;;;5031791;28;20062;-66
2022/05/22 14:33:35;;;;;;;6.35;1.23;;;30.50;31.30;;;;;;5060639;28;20052;-67
2022/05/22 14:36:13;;;;;;;4.75;1.02;;;30.40;31.40;;;;;;5045161;28;20033;-67
2022/05/22 14:38:45;;;;;;;3.03;1.10;;;30.40;32.10;;;;;;5027791;28;20034;-67
2022/05/22 14:41:15;;;;;;;4.40;1.35;;;30.50;32.20;;;;;;5029917;28;20029;-67
2022/05/22 14:43:55;;;;;;;4.25;1.20;;;30.50;32.80;;;;;;5041229;28;20022;-65
2022/05/22 14:46:34;;;;;;;3.20;1.15;;;30.60;32.70;;;;;;5038298;28;20032;-64
2022/05/22 14:49:29;;;;;;;3.88;1.20;;;30.60;32.20;;;;;;5031643;28;20397;-69
2022/05/22 14:51:59;;;;;;;3.17;1.15;;;30.60;33.00;;;;;;5022272;28;20048;-68
2022/05/22 14:54:40;;;;;;;4.88;1.42;;;30.60;33.00;;;;;;5025481;28;20049;-69
2022/05/22 14:57:08;;;;;;;7.88;1.20;;;30.60;32.70;;;;;;5032512;28;20140;-67
2022/05/22 14:59:48;;;;;;;4.78;1.20;;;30.60;32.10;;;;;;5039308;28;20023;-67
2022/05/22 15:02:22;;;;;;;4.10;1.15;;;30.50;34.10;;;;;;5029349;28;20408;-67
2022/05/22 15:04:48;;;;;;;4.93;1.40;;;30.40;32.80;;;;;;5035636;28;20033;-66
2022/05/22 15:07:26;;;;;;;3.30;1.30;;;30.30;33.00;;;;;;5038443;28;20036;-66
2022/05/22 15:09:57;;;;;;;4.25;1.20;;;30.20;33.40;;;;;;5031548;28;20029;-67
2022/05/22 15:12:38;;;;;;;3.13;1.10;;;30.10;33.30;;;;;;5018567;28;20038;-66
2022/05/22 15:15:05;;;;;;;3.70;1.00;;;30.00;33.30;;;;;;5031699;28;20511;-66
2022/05/22 15:17:40;;;;;;;3.97;1.23;;;30.00;33.80;;;;;;5032827;28;20029;-66
2022/05/22 15:20:14;;;;;;;3.70;1.25;;;29.90;34.10;;;;;;5026288;28;20112;-66
2022/05/22 15:25:29;;;;;;;3.53;1.20;;;29.80;34.50;;;;;;5036635;28;20128;-66
2022/05/22 15:28:01;;;;;;;5.55;1.40;;;29.80;34.70;;;;;;5042441;28;20022;-66
2022/05/22 15:30:31;;;;;;;4.60;1.38;;;29.70;35.60;;;;;;5031530;28;20025;-66
2022/05/22 15:33:12;;;;;;;5.90;1.30;;;29.70;35.50;;;;;;5041612;28;20060;-66
2022/05/22 15:35:37;;;;;;;5.05;1.40;;;29.60;35.40;;;;;;5034192;28;20445;-66
2022/05/22 15:38:03;;;;;;;4.45;1.30;;;29.60;35.30;;;;;;5038585;28;20025;-66
2022/05/22 15:40:29;;;;;;;4.22;1.30;;;29.50;35.70;;;;;;5020876;28;20104;-66
2022/05/22 15:43:11;;;;;;;3.47;1.20;;;29.40;35.80;;;;;;5026261;28;20025;-66
2022/05/22 15:45:37;;;;;;;4.30;1.38;;;29.40;36.00;;;;;;5038345;28;20444;-66
2022/05/22 15:51:14;;;;;;;5.55;1.40;;;29.40;36.00;;;;;;5033428;28;20044;-66
2022/05/22 15:53:41;;;;;;;4.00;1.30;;;29.40;35.90;;;;;;5044525;28;20029;-66
2022/05/22 15:56:08;;;;;;;4.43;1.45;;;29.40;36.00;;;;;;5028870;28;20057;-66
2022/05/22 15:58:35;;;;;;;5.40;1.48;;;29.40;36.00;;;;;;5031817;28;20140;-66
2022/05/22 16:01:08;;;;;;;5.40;1.40;;;29.30;36.30;;;;;;5038795;28;20052;-65
2022/05/22 16:03:36;;;;;;;19.02;1.63;;;29.30;36.10;;;;;;5036974;28;20083;-65
2022/05/22 16:06:01;;;;;;;5.20;1.50;;;29.30;36.50;;;;;;5029080;28;20481;-66
2022/05/22 16:08:27;;;;;;;6.82;1.50;;;29.20;36.60;;;;;;5029362;28;20025;-66
2022/05/22 16:10:53;;;;;;;6.00;1.42;;;29.20;36.40;;;;;;5031459;28;20033;-64
2022/05/22 16:13:18;;;;;;;4.35;1.30;;;29.20;36.40;;;;;;5025982;28;20044;-65
2022/05/22 16:15:44;;;;;;;5.00;1.40;;;29.10;36.00;;;;;;5023671;28;20030;-65
2022/05/22 16:18:10;;;;;;;4.95;1.33;;;29.10;36.50;;;;;;5026632;28;20060;-66
2022/05/22 16:20:37;;;;;;;5.28;1.58;;;29.00;36.30;;;;;;5043486;28;20029;-65
2022/05/22 16:23:07;;;;;;;7.60;1.55;;;29.00;36.30;;;;;;5032847;28;20419;-66
2022/05/22 16:25:33;;;;;;;3.78;1.38;;;28.90;36.70;;;;;;5032984;28;20075;-65
2022/05/22 16:27:58;;;;;;;4.80;1.38;;;28.90;37.00;;;;;;5027960;28;20048;-65
2022/05/22 16:30:24;;;;;;;4.43;1.65;;;28.80;37.10;;;;;;5042800;28;20676;-65
2022/05/22 16:32:51;;;;;;;7.63;1.52;;;28.80;36.90;;;;;;5044888;28;20037;-65
2022/05/22 16:35:24;;;;;;;3.80;1.40;;;28.70;36.90;;;;;;5032127;28;20026;-65
2022/05/22 16:37:50;;;;;;;4.75;1.50;;;28.60;36.60;;;;;;5034781;28;20538;-65
2022/05/22 16:40:17;;;;;;;2.88;1.30;;;28.50;36.90;;;;;;5038931;28;20029;-65
2022/05/22 16:42:44;;;;;;;7.88;1.30;;;28.40;37.10;;;;;;5042639;28;20022;-66
2022/05/22 16:45:10;;;;;;;3.33;1.30;;;28.30;37.00;;;;;;5029303;28;20043;-66
2022/05/22 16:53:06;;;;;;;4.05;1.30;;;28.30;37.60;;;;;;5028334;28;20099;-67
2022/05/22 16:55:38;;;;;;;5.90;1.20;;;28.20;37.60;;;;;;5033615;28;20060;-67
2022/05/22 16:58:11;;;;;;;4.65;1.33;;;28.20;37.90;;;;;;5025931;28;20037;-68
2022/05/22 17:00:38;;;;;;;5.60;1.38;;;28.20;37.80;;;;;;5027606;28;20492;-68
2022/05/22 17:03:04;;;;;;;5.15;1.40;;;28.10;38.10;;;;;;5032486;28;20061;-68
2022/05/22 17:05:34;;;;;;;13.93;1.85;;;28.00;38.80;;;;;;5027823;28;20026;-68
2022/05/22 17:08:04;;;;;;;6.22;1.65;;;28.00;38.80;;;;;;5034297;28;20041;-68
2022/05/22 17:10:30;;;;;;;6.50;1.25;;;27.90;39.20;;;;;;5028694;28;20032;-68
2022/05/22 17:12:57;;;;;;;7.40;1.40;;;27.90;40.60;;;;;;5029789;28;20049;-68
2022/05/22 17:15:23;;;;;;;5.15;1.20;;;27.80;40.00;;;;;;5029320;28;20033;-68
2022/05/22 17:17:49;;;;;;;3.95;1.40;;;27.80;40.50;;;;;;5023214;28;20039;-67
2022/05/22 17:20:14;;;;;;;5.28;1.60;;;27.70;40.70;;;;;;5028414;28;20028;-67
2022/05/22 17:22:40;;;;;;;4.25;1.30;;;27.70;40.90;;;;;;5028144;28;20042;-66
2022/05/22 17:25:12;;;;;;;7.00;1.55;;;27.70;41.10;;;;;;5028754;28;20467;-67
2022/05/22 17:27:45;;;;;;;6.13;1.40;;;27.70;41.40;;;;;;5022843;28;20770;-66
2022/05/22 17:30:13;;;;;;;6.05;1.50;;;27.60;41.60;;;;;;5012964;28;20041;-65
2022/05/22 17:32:38;;;;;;;5.07;1.40;;;27.60;42.00;;;;;;5013036;28;20041;-67
2022/05/22 17:35:05;;;;;;;5.43;1.40;;;27.50;42.40;;;;;;5011910;28;20037;-68
2022/05/22 17:37:33;;;;;;;5.28;1.40;;;27.40;42.50;;;;;;5021641;28;20040;-67
2022/05/22 17:40:02;;;;;;;5.35;1.60;;;27.30;42.50;;;;;;5028164;28;20492;-67
2022/05/22 17:42:28;;;;;;;4.60;1.35;;;27.30;42.70;;;;;;5031817;28;20020;-67
2022/05/22 17:44:54;;;;;;;6.78;1.60;;;27.20;42.80;;;;;;5026521;28;20037;-67
2022/05/22 17:47:20;;;;;;;5.47;1.50;;;27.20;42.90;;;;;;5019310;28;20671;-67
2022/05/22 17:49:46;;;;;;;5.82;1.55;;;27.10;43.10;;;;;;5011680;28;20523;-67
2022/05/22 17:52:16;;;;;;;3.60;1.58;;;27.00;43.20;;;;;;5014333;28;20528;-66
2022/05/22 17:54:47;;;;;;;4.85;1.52;;;26.90;43.40;;;;;;5011652;28;20042;-66
2022/05/22 17:57:14;;;;;;;4.60;1.55;;;26.90;43.50;;;;;;5013919;28;20033;-66
2022/05/22 17:59:41;;;;;;;4.80;1.90;;;26.80;43.50;;;;;;5013281;28;20055;-66
2022/05/22 18:02:08;;;;;;;5.30;1.90;;;26.70;44.70;;;;;;5012452;28;20063;-68
2022/05/22 18:04:34;;;;;;;9.75;2.20;;;26.60;43.90;;;;;;5012043;28;20034;-65
2022/05/22 18:07:01;;;;;;;5.15;2.30;;;26.60;44.30;;;;;;5011660;28;20618;-67
2022/05/22 18:09:28;;;;;;;5.18;1.90;;;26.50;44.40;;;;;;5013578;28;20044;-66
2022/05/22 18:17:24;;;;;;;5.57;1.70;;;26.40;44.90;;;;;;5013711;28;20515;-67
2022/05/22 18:19:50;;;;;;;3.95;1.60;;;26.30;45.20;;;;;;5013283;28;20030;-65
2022/05/22 18:22:23;;;;;;;4.72;1.75;;;26.30;45.40;;;;;;5013138;28;20048;-66
2022/05/22 18:27:40;;;;;;;5.38;1.65;;;26.30;45.80;;;;;;5024365;28;20075;-65
2022/05/22 18:30:09;;;;;;;5.43;1.67;;;26.20;46.10;;;;;;5028234;28;20085;-66
2022/05/22 18:32:39;;;;;;;6.43;1.80;;;26.10;46.20;;;;;;5033932;28;20033;-65
2022/05/22 18:35:06;;;;;;;5.78;1.70;;;26.10;46.40;;;;;;5034346;28;20061;-66
2022/05/22 18:37:32;;;;;;;5.32;1.58;;;26.00;46.70;;;;;;5022890;28;20052;-66
2022/05/22 18:39:58;;;;;;;5.60;1.67;;;26.00;46.80;;;;;;5022563;28;20025;-66
2022/05/22 18:42:24;;;;;;;8.10;1.90;;;26.00;47.10;;;;;;5042796;28;20021;-66
2022/05/22 18:44:52;;;;;;;5.80;1.83;;;26.00;47.30;;;;;;5047113;28;20083;-65
2022/05/22 18:47:23;;;;;;;8.70;1.83;;;26.00;47.60;;;;;;5040335;28;20397;-66
2022/05/22 18:49:49;;;;;;;4.07;1.63;;;26.00;48.00;;;;;;5030386;28;20519;-65
2022/05/22 18:52:16;;;;;;;4.82;1.73;;;26.00;48.20;;;;;;5026528;28;20052;-65
2022/05/22 18:54:42;;;;;;;5.13;1.50;;;26.00;48.50;;;;;;5029121;28;20120;-66
2022/05/22 18:57:11;;;;;;;7.72;1.90;;;25.90;48.80;;;;;;5028675;28;20075;-67
2022/05/22 18:59:40;;;;;;;6.15;1.75;;;25.90;49.00;;;;;;5026694;28;20064;-66
2022/05/22 19:02:07;;;;;;;4.32;1.52;;;25.80;49.10;;;;;;5030559;28;20056;-66
2022/05/22 19:04:36;;;;;;;11.10;1.95;;;25.80;49.20;;;;;;5028543;28;20034;-66
2022/05/22 19:07:02;;;;;;;5.43;1.73;;;25.70;49.40;;;;;;5028243;28;20033;-66
2022/05/22 19:09:28;;;;;;;6.75;1.80;;;25.60;49.40;;;;;;5036581;28;20032;-67
2022/05/22 19:12:02;;;;;;;5.55;1.70;;;25.60;49.50;;;;;;5040244;28;20103;-66
2022/05/22 19:14:29;;;;;;;7.05;2.05;;;25.50;49.70;;;;;;5025785;28;20040;-66
2022/05/22 19:16:57;;;;;;;11.07;1.80;;;25.50;50.10;;;;;;5036687;28;20071;-66
2022/05/22 19:19:26;;;;;;;5.63;1.58;;;25.40;50.70;;;;;;5035529;28;20060;-66
2022/05/22 19:21:53;;;;;;;5.45;1.67;;;25.30;51.10;;;;;;5027191;28;20099;-66
2022/05/22 19:24:19;;;;;;;4.93;1.92;;;25.30;51.70;;;;;;5023689;28;20455;-66
2022/05/22 19:26:49;;;;;;;4.57;1.85;;;25.30;52.30;;;;;;5035873;28;20061;-66
2022/05/22 19:29:19;;;;;;;7.80;2.00;;;25.30;52.60;;;;;;5036472;28;20059;-67
2022/05/22 19:31:54;;;;;;;8.77;2.10;;;25.20;52.80;;;;;;5026530;28;20037;-66
2022/05/22 19:34:24;;;;;;;5.88;1.73;;;25.20;53.00;;;;;;5028128;28;20128;-66
2022/05/22 19:36:51;;;;;;;4.38;1.92;;;25.20;53.20;;;;;;5026791;28;20025;-67
2022/05/22 19:39:18;;;;;;;5.93;2.20;;;25.20;53.20;;;;;;5027298;28;20045;-66
2022/05/22 19:44:34;;;;;;;9.00;2.03;;;25.10;53.80;;;;;;5030416;28;20080;-66
2022/05/22 19:47:02;;;;;;;7.72;1.85;;;25.10;53.90;;;;;;5035011;28;20652;-66
2022/05/22 19:49:30;;;;;;;5.60;1.98;;;25.00;53.90;;;;;;5038731;28;20122;-67
2022/05/22 19:51:56;;;;;;;6.90;1.83;;;25.00;54.10;;;;;;5026178;28;20109;-66
2022/05/22 20:00:14;;;;;;;5.35;2.10;;;24.70;54.90;;;;;;5043145;28;20044;-66
2022/05/22 20:02:41;;;;;;;5.57;2.00;;;24.60;55.10;;;;;;5023024;28;20531;-66
2022/05/22 20:05:09;;;;;;;4.75;1.88;;;24.60;55.20;;;;;;5030699;28;20041;-66
2022/05/22 20:07:37;;;;;;;6.97;1.92;;;24.60;55.60;;;;;;5029297;28;20091;-66
2022/05/22 20:10:05;;;;;;;6.38;2.10;;;24.60;55.60;;;;;;5033598;28;20080;-67
2022/05/22 20:12:31;;;;;;;5.97;1.80;;;24.50;55.70;;;;;;5031793;28;20057;-66
2022/05/22 20:14:56;;;;;;;6.90;2.10;;;24.50;56.10;;;;;;5028871;28;20076;-66
2022/05/22 20:17:22;;;;;;;6.97;2.10;;;24.50;56.30;;;;;;5015077;28;20062;-67
2022/05/22 20:19:48;;;;;;;5.47;1.90;;;24.40;56.50;;;;;;5062314;28;21778;-67
2022/05/22 20:22:14;;;;;;;6.57;2.00;;;24.40;56.70;;;;;;5024132;28;20486;-66
2022/05/22 20:24:39;;;;;;;6.45;1.95;;;24.40;56.80;;;;;;5025699;28;20545;-66
2022/05/22 20:27:06;;;;;;;7.00;2.30;;;24.40;57.20;;;;;;5034575;28;20189;-66
2022/05/22 20:29:33;;;;;;;5.07;2.20;;;24.40;57.50;;;;;;5027074;28;20057;-66
2022/05/22 20:32:00;;;;;;;3.70;1.70;;;24.40;57.60;;;;;;5030484;28;20117;-66
2022/05/22 20:34:26;;;;;;;7.68;1.80;;;24.30;57.90;;;;;;5029625;28;20594;-66
2022/05/22 20:36:52;;;;;;;6.18;1.88;;;24.30;58.10;;;;;;5016101;28;20022;-66
2022/05/22 20:39:18;;;;;;;7.18;1.90;;;24.30;58.20;;;;;;5031274;28;20087;-67
2022/05/22 20:41:45;;;;;;;6.05;1.98;;;24.20;58.20;;;;;;5044252;28;20074;-66
2022/05/22 20:44:34;;;;;;;5.88;2.03;;;24.20;58.20;;;;;;5026737;28;20033;-67
2022/05/22 20:47:02;;;;;;;5.43;2.05;;;24.10;58.40;;;;;;5030268;28;20014;-66
2022/05/22 20:49:29;;;;;;;8.32;2.00;;;24.10;59.40;;;;;;5018798;28;20032;-66
2022/05/22 20:51:55;;;;;;;4.82;1.80;;;24.00;58.90;;;;;;5029944;28;20029;-67
2022/05/22 20:54:21;;;;;;;9.13;1.98;;;24.00;59.10;;;;;;5025450;28;20041;-66
2022/05/22 20:56:52;;;;;;;4.70;1.92;;;24.00;59.00;;;;;;5027140;28;20099;-66
2022/05/22 20:59:24;;;;;;;5.63;2.22;;;24.00;58.90;;;;;;5028945;28;20708;-66
2022/05/22 21:01:50;;;;;;;6.45;2.10;;;23.90;58.90;;;;;;5028991;28;20396;-66
2022/05/22 21:04:19;;;;;;;5.55;2.25;;;23.90;59.10;;;;;;5026321;28;20025;-67
2022/05/22 21:06:45;;;;;;;7.07;2.03;;;23.80;59.30;;;;;;5027682;28;20030;-66
2022/05/22 21:09:12;;;;;;;5.43;2.20;;;23.80;59.50;;;;;;5023810;28;20449;-66
2022/05/22 21:11:39;;;;;;;5.60;2.17;;;23.80;59.90;;;;;;5030785;28;20481;-66
2022/05/22 21:14:06;;;;;;;6.25;2.25;;;23.70;60.00;;;;;;5033285;28;20053;-66
2022/05/22 21:16:32;;;;;;;4.43;2.15;;;23.70;60.20;;;;;;5021748;28;20021;-66
2022/05/22 21:19:00;;;;;;;5.93;2.25;;;23.70;60.50;;;;;;5014193;28;20041;-66
2022/05/22 21:21:26;;;;;;;5.75;2.00;;;23.60;60.50;;;;;;5026800;28;20022;-67
2022/05/22 21:29:24;;;;;;;5.65;2.00;;;23.60;60.60;;;;;;5036015;28;20035;-67
2022/05/22 21:31:50;;;;;;;6.63;2.10;;;23.60;60.60;;;;;;5037548;28;20025;-67
2022/05/22 21:34:16;;;;;;;6.38;2.30;;;23.60;60.50;;;;;;5043659;28;20064;-66
2022/05/22 21:36:42;;;;;;;5.80;2.25;;;23.60;60.80;;;;;;5031188;28;20055;-67
2022/05/22 21:39:07;;;;;;;7.35;2.20;;;23.70;61.20;;;;;;5046596;28;20036;-66
2022/05/22 21:41:33;;;;;;;6.30;2.20;;;23.70;61.30;;;;;;5041457;28;20017;-66
2022/05/22 21:44:01;;;;;;;7.70;2.10;;;23.60;61.20;;;;;;5039470;28;20036;-67
2022/05/22 21:46:27;;;;;;;5.15;2.30;;;23.60;61.30;;;;;;5039425;28;20040;-66
2022/05/22 21:48:53;;;;;;;4.82;2.13;;;23.60;62.10;;;;;;5045052;28;20029;-67
2022/05/22 21:51:20;;;;;;;5.47;2.00;;;23.60;62.50;;;;;;5028624;28;20040;-67
2022/05/22 21:53:45;;;;;;;6.50;2.03;;;23.60;62.80;;;;;;5047351;28;20033;-66
2022/05/22 21:56:11;;;;;;;5.00;1.92;;;23.50;63.00;;;;;;5032432;28;20118;-67
2022/05/22 21:58:39;;;;;;;6.18;2.10;;;23.50;63.40;;;;;;5036363;28;20040;-66
2022/05/22 22:01:05;;;;;;;5.70;1.92;;;23.50;63.60;;;;;;5041986;28;20025;-68
2022/05/22 22:03:37;;;;;;;5.95;2.03;;;23.50;64.00;;;;;;5046220;28;20248;-67
2022/05/22 22:06:10;;;;;;;5.55;2.20;;;23.50;64.60;;;;;;5033557;28;20036;-67
2022/05/22 22:08:37;;;;;;;12.20;6.95;;;23.40;64.70;;;;;;5046737;28;20044;-67
2022/05/22 22:11:05;;;;;;;5.53;2.35;;;23.40;64.70;;;;;;5043925;28;20021;-67
2022/05/22 22:13:34;;;;;;;6.72;2.33;;;23.40;65.00;;;;;;5043624;28;20037;-67
2022/05/22 22:16:00;;;;;;;7.57;2.33;;;23.40;65.20;;;;;;5044129;28;20017;-67
2022/05/22 22:18:27;;;;;;;6.18;2.28;;;23.30;66.00;;;;;;5039154;28;20052;-67
2022/05/22 22:20:53;;;;;;;6.15;2.40;;;23.30;66.40;;;;;;5037792;28;20089;-67
2022/05/22 22:23:22;;;;;;;7.05;2.45;;;23.20;66.90;;;;;;5039300;28;20111;-67
2022/05/22 22:25:47;;;;;;;9.52;2.60;;;23.20;67.40;;;;;;5032194;28;20112;-67